createdAt,value
2018-06-29T00:00:14.168Z,99.90
2018-06-29T00:02:51.097Z,99.90
2018-06-29T00:05:27.851Z,99.90
2018-06-29T00:08:05.954Z,99.90
2018-06-29T00:10:43.326Z,99.90
2018-06-29T00:13:22.417Z,99.90
2018-06-29T00:16:00.132Z,99.90
2018-06-29T00:18:36.626Z,99.90
2018-06-29T00:21:13.556Z,99.90
2018-06-29T00:23:51.582Z,99.90
2018-06-29T00:26:29.105Z,99.90
2018-06-29T00:29:05.870Z,99.90
2018-06-29T00:31:42.466Z,99.90
2018-06-29T00:34:18.740Z,99.90
2018-06-29T00:36:56.001Z,99.90
2018-06-29T00:39:33.426Z,99.90
2018-06-29T00:42:12.233Z,99.90
2018-06-29T00:44:48.704Z,99.90
2018-06-29T00:47:25.342Z,99.90
2018-06-29T00:50:02.321Z,99.90
2018-06-29T00:52:39.872Z,99.90
2018-06-29T00:55:17.156Z,99.90
2018-06-29T00:57:55.699Z,99.90
2018-06-29T01:00:33.110Z,99.90
2018-06-29T01:03:10.419Z,99.90
2018-06-29T01:05:48.553Z,99.90
2018-06-29T01:08:25.830Z,99.90
2018-06-29T01:11:02.894Z,99.90
2018-06-29T01:13:39.907Z,99.90
2018-06-29T01:16:21.692Z,99.90
2018-06-29T01:18:59.814Z,99.90
2018-06-29T01:21:36.850Z,99.90
2018-06-29T01:24:14.227Z,99.90
2018-06-29T01:26:51.083Z,99.90
2018-06-29T01:29:28.391Z,99.90
2018-06-29T01:32:05.266Z,99.90
2018-06-29T01:34:43.284Z,99.90
2018-06-29T01:37:20.482Z,99.90
2018-06-29T01:39:57.881Z,99.90
2018-06-29T01:42:35.083Z,99.90
2018-06-29T01:45:11.908Z,99.90
2018-06-29T01:47:48.470Z,99.90
2018-06-29T01:50:25.260Z,99.90
2018-06-29T01:53:02.896Z,99.90
2018-06-29T01:55:40.275Z,99.90
2018-06-29T01:58:17.648Z,99.90
2018-06-29T02:00:54.843Z,99.90
2018-06-29T02:03:32.158Z,99.90
2018-06-29T02:06:09.145Z,99.90
2018-06-29T02:08:45.690Z,99.90
2018-06-29T02:11:22.993Z,99.90
2018-06-29T02:14:00.486Z,99.90
2018-06-29T02:16:38.085Z,99.90
2018-06-29T02:19:15.226Z,99.90
2018-06-29T02:21:52.364Z,99.90
2018-06-29T02:24:29.756Z,99.90
2018-06-29T02:27:06.634Z,99.90
2018-06-29T02:29:43.617Z,99.90
2018-06-29T02:32:23.027Z,99.90
2018-06-29T02:35:00.095Z,99.90
2018-06-29T02:37:37.501Z,99.90
2018-06-29T02:40:14.716Z,99.90
2018-06-29T02:42:51.128Z,99.90
2018-06-29T02:45:28.968Z,99.90
2018-06-29T02:48:06.097Z,99.90
2018-06-29T02:50:43.356Z,99.90
2018-06-29T02:53:20.128Z,99.90
2018-06-29T02:55:57.727Z,99.90
2018-06-29T02:58:34.244Z,99.90
2018-06-29T03:01:11.318Z,99.90
2018-06-29T03:03:48.516Z,99.90
2018-06-29T03:06:26.278Z,99.90
2018-06-29T03:09:02.990Z,99.90
2018-06-29T03:11:40.379Z,99.90
2018-06-29T03:14:17.428Z,99.90
2018-06-29T03:16:54.845Z,99.90
2018-06-29T03:19:32.366Z,99.90
2018-06-29T03:22:10.599Z,99.90
2018-06-29T03:27:24.151Z,99.90
2018-06-29T03:32:38.738Z,99.90
2018-06-29T03:35:15.753Z,99.90
2018-06-29T03:37:53.131Z,99.90
2018-06-29T03:40:30.048Z,99.90
2018-06-29T03:43:07.463Z,99.90
2018-06-29T03:45:44.794Z,99.90
2018-06-29T03:48:22.879Z,99.90
2018-06-29T03:50:59.702Z,99.90
2018-06-29T03:53:37.088Z,99.90
2018-06-29T03:56:14.193Z,99.90
2018-06-29T03:58:51.968Z,99.90
2018-06-29T04:01:29.232Z,99.90
2018-06-29T04:04:06.541Z,99.90
2018-06-29T04:06:43.374Z,99.90
2018-06-29T04:09:20.545Z,99.90
2018-06-29T04:11:56.876Z,99.90
2018-06-29T04:14:34.321Z,99.90
2018-06-29T04:19:48.263Z,99.90
2018-06-29T04:22:25.553Z,99.90
2018-06-29T04:25:03.829Z,99.90
2018-06-29T04:27:40.544Z,99.90
2018-06-29T04:30:18.085Z,99.90
2018-06-29T04:32:55.107Z,99.90
2018-06-29T04:35:32.184Z,99.90
2018-06-29T04:38:09.634Z,99.90
2018-06-29T04:40:47.522Z,99.90
2018-06-29T04:43:24.615Z,99.90
2018-06-29T04:46:01.142Z,99.90
2018-06-29T04:48:38.790Z,99.90
2018-06-29T04:51:16.238Z,99.90
2018-06-29T04:53:54.705Z,99.90
2018-06-29T04:56:32.647Z,99.90
2018-06-29T04:59:09.496Z,99.90
2018-06-29T05:01:46.695Z,99.90
2018-06-29T05:04:23.694Z,99.90
2018-06-29T05:07:01.502Z,99.90
2018-06-29T05:09:38.219Z,99.90
2018-06-29T05:12:15.609Z,99.90
2018-06-29T05:14:53.365Z,99.90
2018-06-29T05:17:30.047Z,99.90
2018-06-29T05:20:07.747Z,99.90
2018-06-29T05:22:45.466Z,99.90
2018-06-29T05:25:22.877Z,99.90
2018-06-29T05:28:01.016Z,99.90
2018-06-29T05:30:38.247Z,99.90
2018-06-29T05:33:15.589Z,99.90
2018-06-29T05:35:53.164Z,99.90
2018-06-29T05:38:30.595Z,99.90
2018-06-29T05:41:08.286Z,99.90
2018-06-29T05:43:45.529Z,99.90
2018-06-29T05:46:22.433Z,99.90
2018-06-29T05:48:59.826Z,99.90
2018-06-29T05:51:36.921Z,99.90
2018-06-29T05:54:14.285Z,99.90
2018-06-29T05:56:51.460Z,99.90
2018-06-29T05:59:28.550Z,99.90
2018-06-29T06:02:05.711Z,99.90
2018-06-29T06:04:42.674Z,99.90
2018-06-29T06:07:19.616Z,99.90
2018-06-29T06:09:57.279Z,99.90
2018-06-29T06:12:34.184Z,99.90
2018-06-29T06:15:11.506Z,99.90
2018-06-29T06:17:48.554Z,99.90
2018-06-29T06:20:27.778Z,99.90
2018-06-29T06:23:16.720Z,99.90
2018-06-29T06:25:53.994Z,99.90
2018-06-29T06:28:31.100Z,99.90
2018-06-29T06:31:08.193Z,99.90
2018-06-29T06:33:45.206Z,99.90
2018-06-29T06:36:22.561Z,99.90
2018-06-29T06:38:59.567Z,99.90
2018-06-29T06:41:36.996Z,99.90
2018-06-29T06:44:14.355Z,99.90
2018-06-29T06:46:51.708Z,99.90
2018-06-29T06:49:28.756Z,99.90
2018-06-29T06:52:06.416Z,99.90
2018-06-29T06:54:43.805Z,99.90
2018-06-29T06:57:20.593Z,99.90
2018-06-29T06:59:57.210Z,99.90
2018-06-29T07:05:38.420Z,99.90
2018-06-29T07:08:21.998Z,99.90
2018-06-29T07:10:59.768Z,99.90
2018-06-29T07:16:13.680Z,99.90
2018-06-29T07:18:50.384Z,99.90
2018-06-29T07:21:27.825Z,99.90
2018-06-29T07:24:05.018Z,99.90
2018-06-29T07:26:42.091Z,99.90
2018-06-29T07:29:18.733Z,99.90
2018-06-29T07:31:57.459Z,99.90
2018-06-29T07:34:34.872Z,99.80
2018-06-29T07:37:11.869Z,97.50
2018-06-29T07:39:48.673Z,96.10
2018-06-29T07:42:25.951Z,94.10
2018-06-29T07:45:03.545Z,92.50
2018-06-29T07:47:40.823Z,91.30
2018-06-29T07:50:17.822Z,88.80
2018-06-29T07:52:55.674Z,87.30
2018-06-29T07:55:32.134Z,88.70
2018-06-29T07:58:09.400Z,90.40
2018-06-29T08:00:46.706Z,91.00
2018-06-29T08:03:23.341Z,87.60
2018-06-29T08:06:00.638Z,85.30
2018-06-29T08:08:37.868Z,83.20
2018-06-29T08:11:14.996Z,82.50
2018-06-29T08:13:52.612Z,80.10
2018-06-29T08:16:29.875Z,81.00
2018-06-29T08:19:06.662Z,79.70
2018-06-29T08:21:43.695Z,78.80
2018-06-29T08:24:20.847Z,78.10
2018-06-29T08:26:58.123Z,77.40
2018-06-29T08:29:35.867Z,78.40
2018-06-29T08:32:13.241Z,78.30
2018-06-29T08:34:50.649Z,77.70
2018-06-29T08:37:28.644Z,73.60
2018-06-29T08:42:46.720Z,71.50
2018-06-29T08:48:00.035Z,67.20
2018-06-29T08:50:37.073Z,67.50
2018-06-29T08:53:14.090Z,63.20
2018-06-29T08:55:51.699Z,65.30
2018-06-29T08:58:28.936Z,66.10
2018-06-29T09:01:05.457Z,68.60
2018-06-29T09:03:42.923Z,66.10
2018-06-29T09:06:20.421Z,65.60
2018-06-29T09:08:57.692Z,64.90
2018-06-29T09:14:12.043Z,63.60
2018-06-29T09:16:50.755Z,65.20
2018-06-29T09:19:27.867Z,69.00
2018-06-29T09:22:05.548Z,71.50
2018-06-29T09:24:42.652Z,71.50
2018-06-29T09:27:20.037Z,72.50
2018-06-29T09:29:58.723Z,75.70
2018-06-29T09:32:35.618Z,73.90
2018-06-29T09:35:12.573Z,74.60
2018-06-29T09:37:49.904Z,74.40
2018-06-29T09:40:26.591Z,72.80
2018-06-29T09:43:03.854Z,72.10
2018-06-29T09:45:40.864Z,71.80
2018-06-29T09:48:17.876Z,76.30
2018-06-29T09:50:55.376Z,79.10
2018-06-29T09:53:32.137Z,81.30
2018-06-29T09:56:09.288Z,81.50
2018-06-29T09:58:46.081Z,77.40
2018-06-29T10:01:24.184Z,81.40
2018-06-29T10:04:01.054Z,79.00
2018-06-29T10:06:38.161Z,79.50
2018-06-29T10:09:15.338Z,79.20
2018-06-29T10:11:53.544Z,79.30
2018-06-29T10:14:30.661Z,82.40
2018-06-29T10:17:07.882Z,82.40
2018-06-29T10:19:45.165Z,81.80
2018-06-29T10:22:22.583Z,83.50
2018-06-29T10:24:59.479Z,83.20
2018-06-29T10:27:36.820Z,79.90
2018-06-29T10:30:13.349Z,78.40
2018-06-29T10:32:50.655Z,79.50
2018-06-29T10:35:27.795Z,80.40
2018-06-29T10:38:04.992Z,84.00
2018-06-29T10:40:42.518Z,83.40
2018-06-29T10:43:19.656Z,83.30
2018-06-29T10:45:56.875Z,84.10
2018-06-29T10:48:34.081Z,82.60
2018-06-29T10:51:11.037Z,82.30
2018-06-29T10:53:48.274Z,78.10
2018-06-29T10:56:25.891Z,79.00
2018-06-29T10:59:02.770Z,80.00
2018-06-29T11:01:41.499Z,76.70
2018-06-29T11:04:18.812Z,75.40
2018-06-29T11:06:56.206Z,76.60
2018-06-29T11:09:34.099Z,79.00
2018-06-29T11:12:11.637Z,80.60
2018-06-29T11:14:48.510Z,79.60
2018-06-29T11:17:25.664Z,82.70
2018-06-29T11:20:03.328Z,83.90
2018-06-29T11:22:39.940Z,82.80
2018-06-29T11:25:17.818Z,77.90
2018-06-29T11:27:54.602Z,74.60
2018-06-29T11:30:31.511Z,76.10
2018-06-29T11:33:08.730Z,73.70
2018-06-29T11:35:46.109Z,74.30
2018-06-29T11:38:23.403Z,76.40
2018-06-29T11:40:59.732Z,75.90
2018-06-29T11:43:37.429Z,71.70
2018-06-29T11:46:14.371Z,70.90
2018-06-29T11:48:52.519Z,74.10
2018-06-29T11:51:29.650Z,73.60
2018-06-29T11:54:07.712Z,72.60
2018-06-29T11:56:45.057Z,72.40
2018-06-29T11:59:22.027Z,75.30
2018-06-29T12:01:59.098Z,76.70
2018-06-29T12:04:36.268Z,80.10
2018-06-29T12:07:13.331Z,78.40
2018-06-29T12:09:50.902Z,81.50
2018-06-29T12:12:27.841Z,80.10
2018-06-29T12:15:05.136Z,79.20
2018-06-29T12:17:41.960Z,79.70
2018-06-29T12:20:19.303Z,84.00
2018-06-29T12:22:56.453Z,87.70
2018-06-29T12:25:33.483Z,86.80
2018-06-29T12:28:10.439Z,83.60
2018-06-29T12:30:47.594Z,86.40
2018-06-29T12:33:25.015Z,83.40
2018-06-29T12:36:03.202Z,81.50
2018-06-29T12:38:39.857Z,81.70
2018-06-29T12:41:18.895Z,82.30
2018-06-29T12:43:55.663Z,85.90
2018-06-29T12:46:32.647Z,90.00
2018-06-29T12:49:09.958Z,90.00
2018-06-29T12:51:46.836Z,86.20
2018-06-29T12:54:23.942Z,85.60
2018-06-29T12:57:01.650Z,86.80
2018-06-29T13:02:15.082Z,83.40
2018-06-29T13:04:52.556Z,87.40
2018-06-29T13:07:29.401Z,91.00
2018-06-29T13:10:06.367Z,93.00
2018-06-29T13:12:43.922Z,94.40
2018-06-29T13:15:20.925Z,95.30
2018-06-29T13:17:58.154Z,96.00
2018-06-29T13:20:35.209Z,95.50
2018-06-29T13:23:12.519Z,96.10
2018-06-29T13:25:49.919Z,96.20
2018-06-29T13:28:27.071Z,97.30
2018-06-29T13:31:04.408Z,96.70
2018-06-29T13:33:41.533Z,95.40
2018-06-29T13:36:18.591Z,97.50
2018-06-29T13:38:56.596Z,96.20
2018-06-29T13:41:34.076Z,95.80
2018-06-29T13:44:10.924Z,92.70
2018-06-29T13:46:47.921Z,96.20
2018-06-29T13:49:24.572Z,97.00
2018-06-29T13:52:01.794Z,98.90
2018-06-29T13:54:39.919Z,98.80
2018-06-29T13:57:17.691Z,97.20
2018-06-29T13:59:54.709Z,99.60
2018-06-29T14:02:32.098Z,98.70
2018-06-29T14:05:09.604Z,98.70
2018-06-29T14:07:46.855Z,98.30
2018-06-29T14:10:24.429Z,98.70
2018-06-29T14:13:00.928Z,99.90
2018-06-29T14:15:38.435Z,98.50
2018-06-29T14:18:15.509Z,99.40
2018-06-29T14:20:52.684Z,98.10
2018-06-29T14:23:29.539Z,99.90
2018-06-29T14:26:06.946Z,99.90
2018-06-29T14:28:43.494Z,98.90
2018-06-29T14:31:20.743Z,99.20
2018-06-29T14:33:58.531Z,99.00
2018-06-29T14:36:35.406Z,97.70
2018-06-29T14:39:12.530Z,99.90
2018-06-29T14:41:49.760Z,99.90
2018-06-29T14:44:26.971Z,99.90
2018-06-29T14:47:04.298Z,99.90
2018-06-29T14:49:41.306Z,99.90
2018-06-29T14:52:18.585Z,99.90
2018-06-29T14:54:56.193Z,99.90
2018-06-29T14:57:33.107Z,99.90
2018-06-29T15:00:12.527Z,99.90
2018-06-29T15:02:50.634Z,99.90
2018-06-29T15:05:27.451Z,99.90
2018-06-29T15:08:03.903Z,99.90
2018-06-29T15:10:40.734Z,99.90
2018-06-29T15:13:17.787Z,99.40
2018-06-29T15:18:31.248Z,99.90
2018-06-29T15:21:08.332Z,99.90
2018-06-29T15:23:45.549Z,99.90
2018-06-29T15:26:22.489Z,99.90
2018-06-29T15:29:00.395Z,99.90
2018-06-29T15:31:37.921Z,99.90
2018-06-29T15:34:14.859Z,99.90
2018-06-29T15:36:52.504Z,99.90
2018-06-29T15:39:29.750Z,99.90
2018-06-29T15:42:07.187Z,99.90
2018-06-29T15:44:43.805Z,99.90
2018-06-29T15:47:20.873Z,99.90
2018-06-29T15:49:58.128Z,99.90
2018-06-29T15:52:35.695Z,99.90
2018-06-29T15:55:12.362Z,99.90
2018-06-29T15:57:49.664Z,99.90
2018-06-29T16:00:25.907Z,99.90
2018-06-29T16:03:02.183Z,99.90
2018-06-29T16:05:39.032Z,99.90
2018-06-29T16:08:16.340Z,99.90
2018-06-29T16:10:53.139Z,99.90
2018-06-29T16:13:30.313Z,99.90
2018-06-29T16:16:06.674Z,99.90
2018-06-29T16:18:43.189Z,99.90
2018-06-29T16:21:20.384Z,99.90
2018-06-29T16:23:57.248Z,99.90
2018-06-29T16:26:34.280Z,99.90
2018-06-29T16:29:12.585Z,99.90
2018-06-29T16:31:51.108Z,99.90
2018-06-29T16:34:27.838Z,99.90
2018-06-29T16:37:05.062Z,99.90
2018-06-29T16:39:42.280Z,99.90
2018-06-29T16:42:20.244Z,99.90
2018-06-29T16:44:57.417Z,99.90
2018-06-29T16:47:34.945Z,99.90
2018-06-29T16:50:11.783Z,99.90
2018-06-29T16:52:49.110Z,99.90
2018-06-29T16:55:26.866Z,99.90
2018-06-29T16:58:04.128Z,99.90
2018-06-29T17:00:41.152Z,99.90
2018-06-29T17:03:18.519Z,99.90
2018-06-29T17:05:55.361Z,99.90
2018-06-29T17:08:33.384Z,99.90
2018-06-29T17:11:11.244Z,99.90
2018-06-29T17:13:48.956Z,99.90
2018-06-29T17:16:26.130Z,99.90
2018-06-29T17:19:03.810Z,99.90
2018-06-29T17:21:40.800Z,99.90
2018-06-29T17:24:18.228Z,99.90
2018-06-29T17:26:55.006Z,99.90
2018-06-29T17:29:37.243Z,99.90
2018-06-29T17:32:14.710Z,99.90
2018-06-29T17:34:51.444Z,99.90
2018-06-29T17:37:28.610Z,99.90
2018-06-29T17:40:06.017Z,99.20
2018-06-29T17:42:45.693Z,99.90
2018-06-29T17:45:26.177Z,99.90
2018-06-29T17:48:03.316Z,99.90
2018-06-29T17:50:41.376Z,99.90
2018-06-29T17:53:19.734Z,99.90
2018-06-29T17:55:56.898Z,99.90
2018-06-29T17:58:34.107Z,99.90
2018-06-29T18:01:13.133Z,99.90
2018-06-29T18:03:50.336Z,99.90
2018-06-29T18:09:04.114Z,99.90
2018-06-29T18:11:41.234Z,99.90
2018-06-29T18:14:19.800Z,99.90
2018-06-29T18:16:57.072Z,99.90
2018-06-29T18:19:34.121Z,99.90
2018-06-29T18:22:11.587Z,99.90
2018-06-29T18:24:49.035Z,99.90
2018-06-29T18:27:25.737Z,99.90
2018-06-29T18:30:02.895Z,99.90
2018-06-29T18:32:40.279Z,99.90
2018-06-29T18:35:17.386Z,99.90
2018-06-29T18:37:54.556Z,99.90
2018-06-29T18:40:31.891Z,99.90
2018-06-29T18:43:09.481Z,99.90
2018-06-29T18:45:47.509Z,99.90
2018-06-29T18:48:24.658Z,99.90
2018-06-29T18:51:01.493Z,99.90
2018-06-29T18:53:38.917Z,99.90
2018-06-29T18:56:17.162Z,99.90
2018-06-29T18:58:55.111Z,99.90
2018-06-29T19:01:34.317Z,99.90
2018-06-29T19:04:12.042Z,99.90
2018-06-29T19:06:49.223Z,99.90
2018-06-29T19:09:26.151Z,99.90
2018-06-29T19:12:03.516Z,99.90
2018-06-29T19:14:41.271Z,99.90
2018-06-29T19:17:17.924Z,99.90
2018-06-29T19:22:34.411Z,99.90
2018-06-29T19:25:17.496Z,99.90
2018-06-29T19:27:54.328Z,99.90
2018-06-29T19:30:31.390Z,99.90
2018-06-29T19:33:08.817Z,99.90
2018-06-29T19:35:45.375Z,99.90
2018-06-29T19:38:22.504Z,99.90
2018-06-29T19:40:59.906Z,99.90
2018-06-29T19:43:36.967Z,99.90
2018-06-29T19:46:13.622Z,99.90
2018-06-29T19:48:50.492Z,99.90
2018-06-29T19:51:27.558Z,99.90
2018-06-29T19:56:42.014Z,99.90
2018-06-29T19:59:19.124Z,99.90
2018-06-29T20:01:56.314Z,99.90
2018-06-29T20:04:33.731Z,99.90
2018-06-29T20:07:10.864Z,99.90
2018-06-29T20:09:48.401Z,99.90
2018-06-29T20:12:25.054Z,99.90
2018-06-29T20:15:02.308Z,99.90
2018-06-29T20:17:39.442Z,99.90
2018-06-29T20:20:16.409Z,99.90
2018-06-29T20:22:54.151Z,99.90
2018-06-29T20:25:31.097Z,99.90
2018-06-29T20:28:08.232Z,99.90
2018-06-29T20:30:45.556Z,99.90
2018-06-29T20:33:24.056Z,99.90
2018-06-29T20:36:01.340Z,99.90
2018-06-29T20:38:38.348Z,99.90
2018-06-29T20:41:17.686Z,99.90
2018-06-29T20:44:08.168Z,99.90
2018-06-29T20:46:45.697Z,99.90
2018-06-29T20:49:22.665Z,99.90
2018-06-29T20:51:59.738Z,99.90
2018-06-29T20:54:36.564Z,99.90
2018-06-29T20:57:13.949Z,99.90
2018-06-29T20:59:51.093Z,99.90
2018-06-29T21:02:28.585Z,99.90
2018-06-29T21:05:06.286Z,99.90
2018-06-29T21:07:43.332Z,99.90
2018-06-29T21:13:21.587Z,99.90
2018-06-29T21:15:58.398Z,99.90
2018-06-29T21:18:35.620Z,99.90
2018-06-29T21:21:12.526Z,99.90
2018-06-29T21:26:25.955Z,99.90
2018-06-29T21:29:02.928Z,99.90
2018-06-29T21:31:39.695Z,99.90
2018-06-29T21:34:16.926Z,99.90
2018-06-29T21:36:54.027Z,99.90
2018-06-29T21:39:31.046Z,99.90
2018-06-29T21:42:08.338Z,99.90
2018-06-29T21:44:45.438Z,99.90
2018-06-29T21:47:22.642Z,99.90
2018-06-29T21:50:00.229Z,99.90
2018-06-29T21:52:37.490Z,99.90
2018-06-29T21:55:14.833Z,99.90
2018-06-29T21:57:52.293Z,99.90
2018-06-29T22:00:34.675Z,99.90
2018-06-29T22:03:12.670Z,99.90
2018-06-29T22:05:54.268Z,99.90
2018-06-29T22:08:31.697Z,99.90
2018-06-29T22:11:08.984Z,99.90
2018-06-29T22:13:45.784Z,99.90
2018-06-29T22:16:22.976Z,99.90
2018-06-29T22:19:00.327Z,99.90
2018-06-29T22:21:37.455Z,99.90
2018-06-29T22:24:14.735Z,99.90
2018-06-29T22:26:53.032Z,99.90
2018-06-29T22:29:30.414Z,99.90
2018-06-29T22:32:07.773Z,99.90
2018-06-29T22:34:45.105Z,99.90
2018-06-29T22:37:22.051Z,99.90
2018-06-29T22:39:59.343Z,99.90
2018-06-29T22:42:36.136Z,99.90
2018-06-29T22:45:13.562Z,99.90
2018-06-29T22:47:50.303Z,99.90
2018-06-29T22:53:31.127Z,99.90
2018-06-29T22:56:08.261Z,99.90
2018-06-29T22:58:45.138Z,99.90
2018-06-29T23:01:22.487Z,99.90
2018-06-29T23:03:59.085Z,99.90
2018-06-29T23:06:35.913Z,99.90
2018-06-29T23:09:13.319Z,99.90
2018-06-29T23:14:26.677Z,99.90
2018-06-29T23:17:04.537Z,99.90
2018-06-29T23:19:41.695Z,99.90
2018-06-29T23:22:18.982Z,99.90
2018-06-29T23:24:56.117Z,99.90
2018-06-29T23:27:34.171Z,99.90
2018-06-29T23:30:11.750Z,99.90
2018-06-29T23:32:48.537Z,99.90
2018-06-29T23:35:26.112Z,99.90
2018-06-29T23:38:03.110Z,99.90
2018-06-29T23:40:40.234Z,99.90
2018-06-29T23:43:16.930Z,99.90
2018-06-29T23:45:54.216Z,99.90
2018-06-29T23:48:32.252Z,99.90
2018-06-29T23:51:09.585Z,99.90
2018-06-29T23:53:46.659Z,99.90
2018-06-29T23:56:24.015Z,99.90
2018-06-29T23:59:00.710Z,99.90
